Time;durP1;ratioP1;P1;durP2;ratioP2;P2;SDS_P1;SDS_P2;PMS_P1;PMS_P2;Temp;Humidity;BMP_temperature;BMP_pressure;BME280_temperature;BME280_humidity;BME280_pressure;Samples;Min_cycle;Max_cycle;Signal;HPM_P1;HPM_P2
2021/05/21 00:02:13;;;;;;;8.15;5.20;;;;;;;9.61;60.50;100595.02;1648586;84;26011;-63
2021/05/21 00:04:43;;;;;;;9.58;5.45;;;;;;;9.60;60.52;100595.07;1643968;85;27571;-63
2021/05/21 00:07:12;;;;;;;9.48;5.65;;;;;;;9.58;60.70;100588.44;1638812;85;25887;-63
2021/05/21 00:09:43;;;;;;;9.38;5.40;;;;;;;9.57;60.69;100588.03;1659788;83;25785;-63
2021/05/21 00:12:13;;;;;;;12.25;5.25;;;;;;;9.57;60.70;100591.18;1671035;82;27464;-63
2021/05/21 00:14:43;;;;;;;10.63;5.37;;;;;;;9.55;60.79;100579.67;1672448;84;25814;-63
2021/05/21 00:17:15;;;;;;;10.08;6.00;;;;;;;9.54;60.83;100584.61;1696294;81;25904;-63
2021/05/21 00:19:44;;;;;;;10.32;5.97;;;;;;;9.51;60.96;100579.38;1694891;82;25584;-63
2021/05/21 00:22:13;;;;;;;10.85;6.03;;;;;;;9.50;61.01;100580.31;1712121;80;25736;-63
2021/05/21 00:24:43;;;;;;;9.45;5.78;;;;;;;9.48;61.02;100583.52;1717002;82;25608;-63
2021/05/21 00:27:13;;;;;;;9.60;5.60;;;;;;;9.47;61.11;100584.45;1692913;82;25663;-63
2021/05/21 00:29:43;;;;;;;10.95;5.60;;;;;;;9.44;61.24;100582.30;1717246;81;27342;-63
2021/05/21 00:32:12;;;;;;;11.60;5.35;;;;;;;9.43;61.33;100573.88;1708065;81;25636;-63
2021/05/21 00:34:41;;;;;;;10.60;6.20;;;;;;;9.43;61.43;100573.88;1708216;81;25687;-63
2021/05/21 00:37:12;;;;;;;15.60;6.60;;;;;;;9.42;61.45;100573.47;1694780;82;25681;-63
2021/05/21 00:39:41;;;;;;;10.27;6.03;;;;;;;9.43;61.52;100574.34;1682042;82;25668;-63
2021/05/21 00:42:12;;;;;;;11.18;6.00;;;;;;;9.42;61.60;100573.47;1679973;82;27449;-63
2021/05/21 00:44:41;;;;;;;21.57;8.08;;;;;;;9.41;61.61;100586.44;1701977;82;25751;-63
2021/05/21 00:47:12;;;;;;;22.87;15.10;;;;;;;9.42;61.70;100585.50;1675727;82;25895;-63
2021/05/21 00:49:43;;;;;;;22.65;15.75;;;;;;;9.40;61.74;100575.33;1679699;83;25664;-63
2021/05/21 00:52:13;;;;;;;21.48;16.00;;;;;;;9.38;61.71;100575.86;1686015;82;25745;-63
2021/05/21 00:54:42;;;;;;;20.37;13.45;;;;;;;9.35;61.80;100577.31;1682468;82;27754;-63
2021/05/21 00:57:11;;;;;;;24.12;15.75;;;;;;;9.35;61.81;100573.77;1702027;82;25831;-63
2021/05/21 00:59:40;;;;;;;27.58;18.77;;;;;;;9.32;61.85;100568.54;1679163;82;25593;-63
2021/05/21 01:02:11;;;;;;;36.60;26.73;;;;;;;9.30;61.96;100568.60;1697708;82;25584;-63
2021/05/21 01:04:41;;;;;;;51.13;34.40;;;;;;;9.29;61.99;100568.66;1705222;81;25661;-63
2021/05/21 01:07:10;;;;;;;43.87;30.62;;;;;;;9.27;61.99;100562.03;1711400;81;26413;-63
2021/05/21 01:09:38;;;;;;;31.33;21.02;;;;;;;9.25;62.05;100563.02;1685731;82;25634;-63
2021/05/21 01:12:08;;;;;;;28.57;21.00;;;;;;;9.25;62.13;100566.57;1684125;82;25709;-63
2021/05/21 01:14:49;;;;;;;30.35;18.77;;;;;;;9.24;62.16;100563.49;1695987;82;25688;-63
2021/05/21 01:17:22;;;;;;;26.57;18.90;;;;;;;9.23;62.15;100556.86;1660635;84;25605;-63
2021/05/21 01:19:53;;;;;;;28.02;15.48;;;;;;;9.18;62.18;100555.70;1641501;85;26443;-63
2021/05/21 01:22:22;;;;;;;20.27;13.90;;;;;;;9.14;62.20;100557.22;1643722;84;25844;-63
2021/05/21 01:24:51;;;;;;;19.90;12.70;;;;;;;9.11;62.30;100550.19;1640892;85;25833;-63
2021/05/21 01:27:20;;;;;;;18.15;11.70;;;;;;;9.09;62.33;100548.05;1637560;85;25644;-63
2021/05/21 01:29:50;;;;;;;14.83;8.73;;;;;;;9.06;62.38;100551.70;1632934;86;25936;-63
2021/05/21 01:32:23;;;;;;;14.33;7.08;;;;;;;9.04;62.46;100544.21;1646757;84;25722;-63
2021/05/21 01:34:52;;;;;;;18.62;8.88;;;;;;;9.00;62.61;100541.25;1629428;85;25570;-63
2021/05/21 01:37:22;;;;;;;14.50;7.37;;;;;;;8.98;62.56;100546.25;1627128;85;25694;-63
2021/05/21 01:39:52;;;;;;;12.68;6.70;;;;;;;8.94;62.54;100547.30;1641483;85;25902;-63
2021/05/21 01:42:20;;;;;;;14.10;7.50;;;;;;;8.90;62.59;100539.86;1634647;83;26130;-63
2021/05/21 01:44:54;;;;;;;14.07;7.10;;;;;;;8.87;62.59;100537.30;1670684;83;25773;-63
2021/05/21 01:47:25;;;;;;;14.28;8.45;;;;;;;8.86;62.71;100534.69;1676587;81;25834;-63
2021/05/21 01:49:54;;;;;;;;;;;;;;;8.84;62.83;100537.88;1695948;82;25685;-63
2021/05/21 01:52:23;;;;;;;15.13;8.15;;;;;;;8.82;63.71;100533.06;1686633;82;25886;-63
2021/05/21 01:54:53;;;;;;;11.93;7.33;;;;;;;8.79;62.90;100534.92;1700380;82;25743;-63
2021/05/21 01:57:24;;;;;;;16.25;8.03;;;;;;;8.77;62.98;100531.44;1720996;81;25726;-63
2021/05/21 01:59:53;;;;;;;17.17;7.58;;;;;;;8.77;63.09;100524.75;1686332;82;25674;-63
2021/05/21 02:02:23;;;;;;;13.20;7.03;;;;;;;8.77;63.13;100524.75;1722688;81;26086;-63
2021/05/21 02:04:52;;;;;;;12.63;6.67;;;;;;;8.75;63.11;100519.06;1700700;82;25569;-63
2021/05/21 02:07:23;;;;;;;13.58;7.10;;;;;;;8.68;63.17;100499.72;1707320;81;25864;-63
2021/05/21 02:09:58;;;;;;;14.90;6.95;;;;;;;8.74;63.22;100511.97;1716415;81;27953;-63
2021/05/21 02:12:31;;;;;;;11.57;6.28;;;;;;;8.72;63.28;100505.34;1687560;81;25875;-63
2021/05/21 02:15:11;;;;;;;15.30;6.92;;;;;;;8.72;63.35;100508.48;1711008;81;25590;-63
2021/05/21 02:17:42;;;;;;;17.20;6.90;;;;;;;8.71;63.37;100502.27;1683578;82;25776;-63
2021/05/21 02:20:14;;;;;;;12.53;6.70;;;;;;;8.72;63.46;100504.48;1687385;81;25625;-63
2021/05/21 02:22:43;;;;;;;9.80;6.33;;;;;;;8.73;63.46;100496.87;1702325;81;25904;-63
2021/05/21 02:25:16;;;;;;;11.20;6.22;;;;;;;8.73;63.48;100493.73;1697047;81;25791;-63
2021/05/21 02:27:44;;;;;;;13.30;6.58;;;;;;;8.73;63.52;100497.73;1714631;81;25637;-63
2021/05/21 02:30:14;;;;;;;11.65;6.65;;;;;;;8.73;63.60;100492.39;1691641;82;25678;-63
2021/05/21 02:32:52;;;;;;;15.53;7.05;;;;;;;8.73;63.59;100487.05;1689475;82;25869;-63
2021/05/21 02:35:20;;;;;;;9.25;5.78;;;;;;;8.72;63.63;100482.64;1680744;82;25814;-63
2021/05/21 02:37:50;;;;;;;12.73;5.95;;;;;;;8.74;63.63;100489.26;1706637;82;25779;-63
2021/05/21 02:40:18;;;;;;;19.45;6.42;;;;;;;8.75;63.72;100482.52;1706136;82;25742;-63
2021/05/21 02:42:47;;;;;;;10.15;6.15;;;;;;;8.74;63.80;100475.43;1705391;81;25642;-63
2021/05/21 02:45:16;;;;;;;12.15;6.80;;;;;;;8.76;63.87;100468.69;1688631;82;25741;-63
2021/05/21 02:47:46;;;;;;;12.03;6.33;;;;;;;8.77;63.85;100475.31;1702452;82;25794;-63
2021/05/21 02:50:16;;;;;;;10.75;5.95;;;;;;;8.79;63.90;100460.55;1703580;82;25938;-63
2021/05/21 02:52:44;;;;;;;17.20;6.75;;;;;;;8.82;64.02;100462.23;1708679;82;25697;-63
2021/05/21 02:55:15;;;;;;;11.80;6.67;;;;;;;8.83;63.96;100452.83;1681230;83;25643;-63
2021/05/21 02:57:44;;;;;;;9.88;6.20;;;;;;;8.83;63.99;100448.81;1701383;82;25823;-63
2021/05/21 03:00:18;;;;;;;12.73;6.78;;;;;;;8.83;64.04;100444.81;1663376;84;25807;-63
2021/05/21 03:02:47;;;;;;;12.82;6.75;;;;;;;8.85;64.04;100442.08;1674555;83;25777;-63
2021/05/21 03:05:21;;;;;;;13.68;8.08;;;;;;;8.80;64.10;100435.57;1671692;83;25775;-63
2021/05/21 03:07:58;;;;;;;13.68;6.87;;;;;;;8.81;64.12;100431.97;1675565;84;26039;-63
2021/05/21 03:10:28;;;;;;;16.93;7.03;;;;;;;8.81;64.20;100429.30;1705663;82;26086;-63
2021/05/21 03:12:58;;;;;;;12.55;6.70;;;;;;;8.81;64.17;100435.98;1695278;82;27346;-63
2021/05/21 03:15:28;;;;;;;14.03;7.25;;;;;;;8.80;64.23;100432.91;1675532;82;26307;-63
2021/05/21 03:17:59;;;;;;;14.28;7.35;;;;;;;8.79;64.26;100427.15;1703979;82;25724;-63
2021/05/21 03:20:28;;;;;;;;;;;;;;;8.81;64.27;100430.63;1670933;83;25651;-63
2021/05/21 03:23:00;;;;;;;15.53;7.37;;;;;;;8.82;64.49;100428.83;1675090;84;25731;-63
2021/05/21 03:25:33;;;;;;;21.57;8.60;;;;;;;8.81;64.38;100430.63;1700384;82;28035;-63
2021/05/21 03:28:04;;;;;;;13.28;8.23;;;;;;;8.83;64.39;100438.13;1676617;83;25864;-63
2021/05/21 03:30:35;;;;;;;15.50;8.10;;;;;;;8.85;64.47;100443.41;1702857;82;33796;-63
2021/05/21 03:33:07;;;;;;;13.43;7.62;;;;;;;8.82;64.51;100435.52;1692879;82;26086;-63
2021/05/21 03:35:36;;;;;;;11.60;6.97;;;;;;;8.82;64.60;100435.05;1676234;83;25758;-63
2021/05/21 03:38:06;;;;;;;11.97;7.17;;;;;;;8.81;64.61;100431.97;1678000;82;25771;-63
2021/05/21 03:40:40;;;;;;;18.05;8.08;;;;;;;8.85;64.77;100426.03;1699565;82;30451;-63
2021/05/21 03:43:10;;;;;;;13.60;7.58;;;;;;;8.90;64.87;100422.25;1682855;81;26004;-63
2021/05/21 03:45:41;;;;;;;14.40;7.08;;;;;;;8.95;64.88;100428.28;1708931;82;25811;-63
2021/05/21 03:48:12;;;;;;;12.40;7.30;;;;;;;8.97;64.92;100424.21;1678767;82;25688;-63
2021/05/21 03:50:40;;;;;;;18.27;7.25;;;;;;;8.99;65.04;100423.22;1671257;83;25682;-63
2021/05/21 03:53:07;;;;;;;13.78;6.78;;;;;;;9.03;65.12;100421.30;1666111;83;25860;-63
2021/05/21 03:55:37;;;;;;;15.98;6.83;;;;;;;9.06;65.09;100422.50;1688370;83;25580;-63
2021/05/21 03:58:07;;;;;;;12.43;6.65;;;;;;;9.09;65.16;100415.70;1661638;83;25662;-63
2021/05/21 04:00:37;;;;;;;15.32;8.03;;;;;;;9.11;65.11;100419.17;1677800;83;25752;-63
2021/05/21 04:03:12;;;;;;;14.00;7.37;;;;;;;9.12;65.15;100410.22;1659909;84;27389;-63
2021/05/21 04:05:41;;;;;;;13.58;7.80;;;;;;;9.16;65.20;100401.14;1670339;83;25746;-63
2021/05/21 04:08:11;;;;;;;12.28;7.10;;;;;;;9.22;65.33;100399.55;1668843;83;25638;-63
2021/05/21 04:10:40;;;;;;;12.00;7.00;;;;;;;9.30;65.31;100396.55;1680087;83;25887;-63
2021/05/21 04:13:09;;;;;;;10.25;6.72;;;;;;;9.36;65.34;100400.31;1712242;82;25805;-63
2021/05/21 04:15:40;;;;;;;10.88;5.80;;;;;;;9.41;65.38;100392.49;1705553;82;25785;-63
2021/05/21 04:18:15;;;;;;;;;;;;;;;9.50;65.39;100392.56;1696651;82;25771;-63
2021/05/21 04:20:44;;;;;;;10.03;5.80;;;;;;;9.60;65.42;100390.37;1658798;84;25897;-63
2021/05/21 04:23:14;;;;;;;15.55;6.85;;;;;;;9.68;65.41;100387.76;1638795;84;25799;-63
2021/05/21 04:25:44;;;;;;;10.93;6.62;;;;;;;9.75;65.32;100385.22;1666949;83;25439;-63
2021/05/21 04:28:15;;;;;;;10.82;6.50;;;;;;;9.84;65.29;100393.30;1636031;84;27815;-63
2021/05/21 04:30:44;;;;;;;16.35;8.00;;;;;;;9.89;65.29;100388.62;1668216;83;26339;-63
2021/05/21 04:33:11;;;;;;;15.68;6.78;;;;;;;9.96;65.30;100379.84;1692789;83;25718;-63
2021/05/21 04:35:42;;;;;;;17.27;7.67;;;;;;;10.01;65.16;100380.50;1638433;84;25668;-63
2021/05/21 04:38:12;;;;;;;10.15;6.60;;;;;;;10.03;65.17;100382.17;1660489;84;25663;-63
2021/05/21 04:40:43;;;;;;;11.75;7.30;;;;;;;10.04;65.12;100384.38;1662002;84;27282;-63
2021/05/21 04:43:14;;;;;;;12.88;7.35;;;;;;;10.01;65.16;100383.18;1673721;83;25799;-63
2021/05/21 04:45:44;;;;;;;13.93;8.40;;;;;;;9.97;65.23;100383.79;1686280;83;25708;-63
2021/05/21 04:48:16;;;;;;;12.33;7.97;;;;;;;9.96;65.14;100386.06;1683039;83;25702;-63
2021/05/21 04:50:49;;;;;;;18.87;6.95;;;;;;;9.95;65.26;100380.78;1667817;84;33691;-63
2021/05/21 04:53:19;;;;;;;12.28;7.75;;;;;;;9.95;65.28;100368.73;1694729;82;26999;-63
2021/05/21 04:55:48;;;;;;;12.47;7.55;;;;;;;9.99;65.37;100377.02;1698848;82;25823;-63
2021/05/21 04:58:17;;;;;;;13.72;7.40;;;;;;;10.04;65.30;100369.19;1688153;82;25617;-63
2021/05/21 05:00:47;;;;;;;12.93;7.85;;;;;;;10.11;65.29;100368.44;1706220;82;25643;-63
2021/05/21 05:03:17;;;;;;;14.28;7.78;;;;;;;10.18;65.35;100361.86;1690410;83;25638;-63
2021/05/21 05:05:48;;;;;;;13.93;7.47;;;;;;;10.28;65.35;100363.20;1701007;82;25845;-63
2021/05/21 05:08:19;;;;;;;11.78;7.55;;;;;;;10.36;65.32;100361.03;1674497;82;25759;-63
2021/05/21 05:10:53;;;;;;;17.07;8.50;;;;;;;10.45;65.27;100360.17;1672116;83;25622;-63
2021/05/21 05:13:24;;;;;;;22.48;8.30;;;;;;;10.52;65.26;100353.11;1665840;82;25862;-63
2021/05/21 05:15:54;;;;;;;13.05;9.00;;;;;;;10.62;65.27;100358.42;1710943;82;25882;-63
2021/05/21 05:18:22;;;;;;;16.82;8.35;;;;;;;10.71;65.19;100352.62;1678660;82;26035;-63
2021/05/21 05:20:52;;;;;;;13.65;7.85;;;;;;;10.84;65.18;100349.34;1669887;83;25900;-63
2021/05/21 05:23:22;;;;;;;10.80;6.22;;;;;;;10.94;65.04;100346.60;1650229;84;25744;-63
2021/05/21 05:25:53;;;;;;;;;;;;;;;11.04;65.02;100348.75;1688847;83;25984;-63
2021/05/21 05:28:23;;;;;;;18.20;7.27;;;;;;;11.13;64.92;100343.40;1705150;82;25680;-63
2021/05/21 05:30:51;;;;;;;18.55;8.55;;;;;;;11.19;64.87;100344.43;1678573;83;27942;-63
2021/05/21 05:33:19;;;;;;;12.78;6.92;;;;;;;11.24;64.72;100349.09;1699381;82;25719;-63
2021/05/21 05:35:49;;;;;;;13.78;7.75;;;;;;;11.26;64.68;100339.15;1699056;82;25837;-63
2021/05/21 05:38:18;;;;;;;15.30;7.87;;;;;;;11.26;64.59;100341.83;1675133;82;25645;-63
2021/05/21 05:40:48;;;;;;;15.25;7.78;;;;;;;11.24;64.54;100332.13;1682153;82;25392;-63
2021/05/21 05:43:19;;;;;;;10.88;7.12;;;;;;;11.24;64.47;100330.78;1704999;82;25706;-63
2021/05/21 05:45:48;;;;;;;11.30;7.53;;;;;;;11.25;64.51;100324.47;1685926;81;25775;-63
2021/05/21 05:48:19;;;;;;;17.10;7.50;;;;;;;11.28;64.49;100323.84;1675987;82;25979;-63
2021/05/21 05:50:54;;;;;;;18.10;7.20;;;;;;;11.33;64.44;100320.45;1675569;83;25877;-63
2021/05/21 05:53:22;;;;;;;14.95;6.87;;;;;;;11.39;64.44;100317.45;1619560;85;25614;-63
2021/05/21 05:55:53;;;;;;;15.88;7.60;;;;;;;11.48;64.40;100317.44;1648527;84;26230;-62
2021/05/21 05:58:22;;;;;;;9.00;6.63;;;;;;;11.55;64.37;100320.67;1649026;84;25857;-63
2021/05/21 06:00:52;;;;;;;13.90;7.28;;;;;;;11.63;64.44;100317.98;1603909;86;25606;-63
2021/05/21 06:03:21;;;;;;;17.62;6.95;;;;;;;11.77;64.35;100315.94;1615439;85;25746;-62
2021/05/21 06:05:52;;;;;;;8.00;6.30;;;;;;;11.93;64.28;100308.80;1631271;85;25699;-63
2021/05/21 06:08:23;;;;;;;20.80;7.25;;;;;;;12.10;64.20;100298.95;1616188;85;27405;-63
2021/05/21 06:10:53;;;;;;;9.53;7.03;;;;;;;12.23;63.97;100297.31;1679115;84;34836;-63
2021/05/21 06:13:26;;;;;;;13.08;7.92;;;;;;;12.28;63.78;100297.92;1712091;82;25737;-63
2021/05/21 06:15:57;;;;;;;10.82;7.40;;;;;;;12.32;63.76;100290.08;1704424;82;25629;-64
2021/05/21 06:18:26;;;;;;;;;;;;;;;12.41;63.66;100284.67;1670420;83;25643;-63
2021/05/21 06:20:54;;;;;;;12.20;7.08;;;;;;;12.52;63.58;100279.55;1671153;83;26145;-62
2021/05/21 06:23:24;;;;;;;11.35;5.95;;;;;;;12.63;63.54;100269.91;1673935;83;25797;-63
2021/05/21 06:26:09;;;;;;;16.45;6.33;;;;;;;12.79;63.40;100269.02;1670290;84;25672;-63
2021/05/21 06:28:27;;;;;;;11.70;6.60;;;;;;;12.96;63.30;100275.63;1632998;84;25935;-64
2021/05/21 06:30:57;;;;;;;8.48;5.92;;;;;;;13.14;63.13;100271.80;1620501;85;25603;-61
2021/05/21 06:33:26;;;;;;;11.28;6.05;;;;;;;13.25;62.57;100265.34;1642918;85;26181;-62
2021/05/21 06:35:57;;;;;;;8.60;5.78;;;;;;;13.33;62.58;100260.35;1701909;82;25826;-62
2021/05/21 06:38:26;;;;;;;25.00;6.50;;;;;;;13.45;62.45;100256.05;1698327;82;25794;-62
2021/05/21 06:40:55;;;;;;;6.85;5.58;;;;;;;13.54;62.33;100255.48;1679147;83;25706;-62
2021/05/21 06:43:30;;;;;;;9.35;5.53;;;;;;;13.63;62.05;100252.70;1687286;83;26037;-63
2021/05/21 06:46:04;;;;;;;6.67;4.70;;;;;;;13.67;61.35;100251.55;1680597;83;25861;-61
2021/05/21 06:48:35;;;;;;;11.08;5.37;;;;;;;13.74;61.63;100253.38;1694457;82;25651;-61
2021/05/21 06:51:07;;;;;;;9.68;5.65;;;;;;;13.75;61.56;100257.80;1677371;83;25783;-61
2021/05/21 06:53:39;;;;;;;15.95;5.10;;;;;;;13.80;61.40;100251.16;1676890;82;25766;-62
2021/05/21 06:56:10;;;;;;;12.90;5.17;;;;;;;13.87;61.17;100248.95;1677004;83;25797;-62
2021/05/21 06:58:45;;;;;;;12.47;5.00;;;;;;;13.96;60.97;100245.19;1680029;83;26226;-61
2021/05/21 07:01:15;;;;;;;8.58;4.78;;;;;;;14.01;60.41;100230.56;1691212;82;25654;-62
2021/05/21 07:03:44;;;;;;;9.00;5.00;;;;;;;14.01;60.25;100235.95;1702309;82;25810;-62
2021/05/21 07:06:14;;;;;;;6.25;4.62;;;;;;;14.00;59.92;100228.83;1704446;82;25844;-63
2021/05/21 07:08:44;;;;;;;9.70;4.22;;;;;;;13.98;59.97;100222.19;1694935;82;25594;-63
2021/05/21 07:11:13;;;;;;;16.20;5.27;;;;;;;14.00;59.87;100220.27;1690207;83;27958;-67
2021/05/21 07:13:43;;;;;;;9.25;5.05;;;;;;;14.06;59.76;100214.96;1697261;82;25733;-62
2021/05/21 07:16:12;;;;;;;9.63;5.15;;;;;;;14.12;59.42;100207.83;1674556;83;26082;-61
2021/05/21 07:18:43;;;;;;;7.80;4.92;;;;;;;14.18;59.22;100204.73;1686217;83;25926;-62
2021/05/21 07:21:12;;;;;;;8.40;4.57;;;;;;;14.25;59.08;100202.02;1685444;82;25760;-63
2021/05/21 07:23:41;;;;;;;8.35;4.87;;;;;;;14.30;59.16;100202.09;1695717;83;27875;-63
2021/05/21 07:26:10;;;;;;;10.40;4.47;;;;;;;14.38;59.19;100201.59;1669073;83;25589;-63
2021/05/21 07:28:37;;;;;;;5.00;3.95;;;;;;;14.52;58.94;100192.63;1668026;83;25782;-63
2021/05/21 07:31:06;;;;;;;8.08;5.87;;;;;;;14.63;58.89;100182.47;1627111;84;25819;-62
2021/05/21 07:33:37;;;;;;;13.45;5.08;;;;;;;14.75;58.79;100184.33;1665357;83;26052;-61
2021/05/21 07:36:08;;;;;;;7.55;4.70;;;;;;;14.82;58.48;100178.90;1652686;84;27944;-62
2021/05/21 07:38:38;;;;;;;9.40;4.42;;;;;;;14.85;58.34;100186.30;1628782;85;26061;-62
2021/05/21 07:41:07;;;;;;;12.03;4.22;;;;;;;14.92;58.41;100181.34;1606655;85;25729;-62
2021/05/21 07:43:36;;;;;;;18.23;4.08;;;;;;;15.03;58.13;100180.61;1633399;85;26077;-62
2021/05/21 07:46:06;;;;;;;6.95;3.40;;;;;;;15.13;57.52;100174.47;1621185;85;26190;-62
2021/05/21 07:48:34;;;;;;;7.33;3.87;;;;;;;15.21;57.12;100170.74;1623289;85;27418;-60
2021/05/21 07:51:06;;;;;;;7.12;3.52;;;;;;;15.22;57.20;100165.72;1622431;86;25678;-63
2021/05/21 07:53:38;;;;;;;5.03;3.40;;;;;;;15.37;57.14;100165.13;1620606;86;26204;-63
2021/05/21 07:56:07;;;;;;;5.78;3.30;;;;;;;15.52;56.77;100152.37;1622064;85;26059;-64
2021/05/21 07:58:36;;;;;;;6.35;3.12;;;;;;;15.60;56.85;100157.26;1624642;86;25664;-65
2021/05/21 08:01:05;;;;;;;7.60;3.20;;;;;;;15.71;56.00;100151.42;1663330;82;26314;-62
2021/05/21 08:03:34;;;;;;;6.87;3.47;;;;;;;15.77;55.53;100142.02;1679148;82;25788;-63
2021/05/21 08:06:05;;;;;;;15.15;4.00;;;;;;;15.85;55.63;100145.87;1675136;82;25780;-63
2021/05/21 08:08:35;;;;;;;7.53;2.33;;;;;;;15.98;55.15;100139.58;1681536;84;25866;-62
2021/05/21 08:11:05;;;;;;;2.92;2.42;;;;;;;16.11;54.87;100134.98;1701082;82;25614;-62
2021/05/21 08:13:38;;;;;;;3.62;2.70;;;;;;;16.21;54.03;100134.19;1672495;82;25706;-63
2021/05/21 08:16:10;;;;;;;3.05;2.50;;;;;;;16.31;53.93;100122.19;1633290;84;26108;-62
2021/05/21 08:18:40;;;;;;;3.70;2.47;;;;;;;16.38;54.34;100124.81;1676303;83;25808;-62
2021/05/21 08:21:12;;;;;;;4.10;2.58;;;;;;;16.53;53.79;100115.53;1658413;84;25695;-62
2021/05/21 08:23:42;;;;;;;10.45;2.90;;;;;;;16.67;53.63;100110.94;1655417;84;26069;-63
2021/05/21 08:26:11;;;;;;;6.95;2.65;;;;;;;16.77;53.22;100116.01;1646531;84;25878;-63
2021/05/21 08:28:42;;;;;;;9.35;3.33;;;;;;;16.85;53.29;100108.16;1673851;83;25733;-63
2021/05/21 08:31:12;;;;;;;2.98;2.10;;;;;;;16.98;52.87;100109.41;1694523;83;25816;-62
2021/05/21 08:33:43;;;;;;;3.22;2.17;;;;;;;17.04;52.08;100111.64;1676965;82;25674;-61
2021/05/21 08:36:13;;;;;;;10.20;2.02;;;;;;;17.06;51.94;100105.61;1665394;83;25657;-61
2021/05/21 08:38:45;;;;;;;4.85;2.45;;;;;;;17.14;52.02;100099.10;1672399;83;26032;-62
2021/05/21 08:41:28;;;;;;;3.62;2.80;;;;;;;17.30;51.82;100091.97;1699204;83;25820;-61
2021/05/21 08:43:58;;;;;;;11.95;2.35;;;;;;;17.46;51.35;100091.98;1657756;84;25682;-61
2021/05/21 08:46:27;;;;;;;7.07;1.97;;;;;;;17.59;51.19;100082.36;1671652;83;25834;-62
2021/05/21 08:49:01;;;;;;;4.97;1.72;;;;;;;17.72;50.89;100091.25;1686061;83;25823;-63
2021/05/21 08:51:30;;;;;;;4.53;2.20;;;;;;;17.69;50.23;100074.37;1654193;84;26010;-62
2021/05/21 08:53:59;;;;;;;4.20;1.75;;;;;;;17.60;49.46;100070.53;1681143;83;25720;-61
2021/05/21 08:56:29;;;;;;;2.98;1.60;;;;;;;17.63;49.67;100064.86;1677748;83;25645;-63
2021/05/21 08:58:58;;;;;;;5.60;2.00;;;;;;;17.65;49.64;100055.25;1663177;83;25651;-63
2021/05/21 09:01:28;;;;;;;9.83;1.80;;;;;;;17.74;48.93;100064.02;1644917;84;25997;-61
2021/05/21 09:04:06;;;;;;;7.00;1.87;;;;;;;17.73;48.39;100050.95;1665821;84;26301;-63
2021/05/21 09:06:38;;;;;;;5.65;1.80;;;;;;;17.76;48.68;100041.22;1663052;83;26009;-63
2021/05/21 09:09:10;;;;;;;7.37;1.87;;;;;;;17.82;47.78;100031.71;1634281;84;25622;-63
2021/05/21 09:11:42;;;;;;;3.37;1.92;;;;;;;17.87;48.15;100036.26;1672259;83;25850;-63
2021/05/21 09:14:23;;;;;;;7.12;1.90;;;;;;;17.97;47.81;100033.14;1635522;84;25815;-62
2021/05/21 09:16:58;;;;;;;5.22;1.80;;;;;;;18.07;47.96;100035.45;1699909;82;26237;-61
2021/05/21 09:19:28;;;;;;;1.62;1.45;;;;;;;18.28;47.69;100026.45;1700128;82;25790;-62
2021/05/21 09:22:06;;;;;;;3.50;1.50;;;;;;;18.33;47.21;100023.72;1715279;81;25786;-62
2021/05/21 09:24:43;;;;;;;4.15;1.72;;;;;;;18.25;47.24;100011.80;1695554;83;25832;-62
2021/05/21 09:27:15;;;;;;;2.47;1.52;;;;;;;18.28;47.32;100022.39;1695713;82;25826;-62
2021/05/21 09:29:57;;;;;;;4.92;1.90;;;;;;;18.25;47.06;100010.44;1696533;83;25756;-62
2021/05/21 09:32:36;;;;;;;6.78;2.20;;;;;;;18.30;47.08;99997.34;1694885;82;25610;-62
2021/05/21 09:35:13;;;;;;;1.87;1.42;;;;;;;18.36;45.71;100000.89;1658725;83;25726;-62
2021/05/21 09:37:56;;;;;;;4.50;1.50;;;;;;;18.46;46.18;100005.39;1689641;82;25848;-62
2021/05/21 09:40:28;;;;;;;4.05;1.62;;;;;;;18.53;46.46;99998.08;1659315;84;25753;-62
2021/05/21 09:43:06;;;;;;;4.37;1.80;;;;;;;18.65;46.07;100002.47;1673690;83;25893;-62
2021/05/21 09:45:41;;;;;;;6.05;1.70;;;;;;;18.58;45.67;99999.40;1687812;82;25858;-62
2021/05/21 09:48:12;;;;;;;6.53;1.60;;;;;;;18.50;46.02;99989.70;1661980;83;25633;-62
2021/05/21 09:50:51;;;;;;;15.63;2.05;;;;;;;18.52;46.12;99986.86;1683598;83;26006;-62
2021/05/21 09:53:25;;;;;;;13.93;2.00;;;;;;;18.65;45.27;99959.05;1681567;83;25581;-63
2021/05/21 09:56:00;;;;;;;5.95;1.57;;;;;;;18.72;45.55;99980.09;1672437;83;26521;-62
2021/05/21 09:58:44;;;;;;;7.62;1.47;;;;;;;18.76;45.83;99972.03;1688791;83;25772;-62
2021/05/21 10:01:27;;;;;;;8.85;1.55;;;;;;;18.89;45.84;99977.24;1683619;83;25627;-62
2021/05/21 10:04:00;;;;;;;3.75;1.32;;;;;;;18.85;45.87;99979.87;1693809;83;25675;-63
2021/05/21 10:06:29;;;;;;;12.13;2.02;;;;;;;18.83;45.68;99980.50;1671547;83;26021;-63
2021/05/21 10:09:00;;;;;;;8.10;1.37;;;;;;;18.84;44.55;99976.79;1673394;84;25678;-63
2021/05/21 10:11:32;;;;;;;4.45;1.37;;;;;;;18.85;44.36;99970.86;1689994;83;25795;-63
2021/05/21 10:14:10;;;;;;;7.55;1.82;;;;;;;18.85;44.21;99943.21;1661220;83;25865;-63
2021/05/21 10:16:44;;;;;;;5.87;1.30;;;;;;;18.99;44.67;99956.92;1680402;83;25659;-63
2021/05/21 10:19:16;;;;;;;7.95;1.67;;;;;;;19.18;44.46;99945.27;1653685;83;25786;-63
2021/05/21 10:21:46;;;;;;;11.88;1.75;;;;;;;19.27;43.97;99924.05;1683979;83;25738;-63
2021/05/21 10:24:19;;;;;;;6.37;1.27;;;;;;;19.38;44.33;99928.02;1679033;83;25763;-64
2021/05/21 10:26:53;;;;;;;7.22;1.65;;;;;;;19.48;43.33;99937.05;1675723;83;25812;-63
2021/05/21 10:29:36;;;;;;;7.72;1.07;;;;;;;19.32;43.13;99922.64;1676853;83;26132;-63
2021/05/21 10:32:16;;;;;;;4.37;1.17;;;;;;;19.20;43.32;99912.88;1679654;83;25802;-63
2021/05/21 10:34:48;;;;;;;5.17;1.10;;;;;;;19.19;42.17;99925.25;1660404;85;28071;-63
2021/05/21 10:37:26;;;;;;;16.80;1.02;;;;;;;19.30;42.93;99926.49;1680263;82;25685;-62
2021/05/21 10:40:13;;;;;;;17.12;1.47;;;;;;;19.44;40.89;99915.22;1654957;84;26312;-63
2021/05/21 10:42:48;;;;;;;11.57;1.10;;;;;;;19.48;41.65;99903.06;1647751;85;25841;-63
2021/05/21 10:45:24;;;;;;;6.87;0.70;;;;;;;19.66;41.32;99898.68;1672055;84;25864;-63
2021/05/21 10:48:04;;;;;;;4.95;0.85;;;;;;;19.76;40.87;99904.13;1696168;82;27481;-62
2021/05/21 10:50:40;;;;;;;7.22;1.12;;;;;;;19.76;40.54;99915.86;1664143;84;25761;-62
2021/05/21 10:53:11;;;;;;;7.12;1.12;;;;;;;19.78;39.58;99892.09;1701412;82;25541;-63
2021/05/21 10:55:56;;;;;;;14.83;1.20;;;;;;;19.91;40.03;99893.67;1679290;83;25959;-63
2021/05/21 10:58:32;;;;;;;17.07;2.75;;;;;;;20.09;39.81;99886.48;1697252;82;25710;-63
2021/05/21 11:01:25;;;;;;;10.60;1.00;;;;;;;20.14;39.64;99882.83;1699258;81;25802;-63
2021/05/21 11:04:09;;;;;;;9.45;0.90;;;;;;;20.25;39.46;99888.10;1680959;83;25702;-63
2021/05/21 11:06:56;;;;;;;8.60;1.10;;;;;;;20.32;38.31;99877.48;1660505;84;25924;-63
2021/05/21 11:09:38;;;;;;;4.37;0.80;;;;;;;20.20;39.14;99878.66;1675201;83;25602;-63
2021/05/21 11:12:08;;;;;;;2.30;0.75;;;;;;;20.39;38.83;99863.67;1678992;83;25897;-63
2021/05/21 11:14:50;;;;;;;6.00;0.88;;;;;;;20.38;36.84;99868.27;1676996;83;27457;-62
2021/05/21 11:17:27;;;;;;;7.30;0.82;;;;;;;20.26;37.48;99860.39;1700021;82;25770;-63
2021/05/21 11:20:07;;;;;;;13.70;1.20;;;;;;;20.02;37.61;99846.77;1695732;82;25844;-62
2021/05/21 11:22:39;;;;;;;7.17;1.12;;;;;;;20.08;37.88;99839.88;1677860;83;26250;-63
2021/05/21 11:25:18;;;;;;;4.90;0.90;;;;;;;20.17;38.05;99840.36;1707207;82;25809;-63
2021/05/21 11:27:46;;;;;;;3.83;0.85;;;;;;;20.22;37.84;99843.50;1700787;82;27145;-63
2021/05/21 11:30:18;;;;;;;9.98;0.95;;;;;;;20.22;37.75;99840.78;1675715;83;25817;-63
2021/05/21 11:32:47;;;;;;;6.67;0.90;;;;;;;20.26;36.95;99839.98;1675795;82;25614;-63
2021/05/21 11:35:16;;;;;;;10.35;1.37;;;;;;;20.32;36.12;99818.47;1696772;82;25686;-62
2021/05/21 11:37:46;;;;;;;11.65;1.30;;;;;;;20.29;36.09;99803.80;1675483;83;25598;-62
2021/05/21 11:40:17;;;;;;;5.87;0.80;;;;;;;20.52;35.15;99820.65;1679352;83;27670;-63
2021/05/21 11:42:46;;;;;;;9.63;0.93;;;;;;;20.64;36.38;99823.53;1673266;82;25830;-63
2021/05/21 11:45:14;;;;;;;0.98;0.70;;;;;;;20.82;36.15;99826.27;1678675;83;25685;-63
2021/05/21 11:47:47;;;;;;;7.15;1.00;;;;;;;21.00;35.05;99820.86;1698199;82;25593;-63